createdAt,value
2023-05-16T00:02:28.263Z,11.40
2023-05-16T00:05:02.547Z,11.40
2023-05-16T00:07:31.929Z,11.40
2023-05-16T00:10:06.492Z,11.50
2023-05-16T00:12:36.683Z,11.50
2023-05-16T00:15:13.486Z,11.50
2023-05-16T00:17:43.735Z,11.50
2023-05-16T00:20:20.491Z,11.50
2023-05-16T00:22:49.944Z,11.50
2023-05-16T00:25:17.759Z,11.50
2023-05-16T00:27:52.462Z,11.50
2023-05-16T00:30:20.508Z,11.50
2023-05-16T00:32:54.835Z,11.50
2023-05-16T00:35:22.942Z,11.60
2023-05-16T00:37:59.500Z,11.60
2023-05-16T00:40:27.628Z,11.50
2023-05-16T00:43:02.948Z,11.50
2023-05-16T00:45:37.535Z,11.50
2023-05-16T00:48:20.649Z,11.60
2023-05-16T00:50:49.420Z,11.60
2023-05-16T00:53:19.387Z,11.60
2023-05-16T00:55:55.478Z,11.60
2023-05-16T00:58:24.154Z,11.60
2023-05-16T01:01:04.527Z,11.60
2023-05-16T01:03:33.281Z,11.60
2023-05-16T01:06:07.484Z,11.60
2023-05-16T01:08:36.611Z,11.60
2023-05-16T01:11:15.616Z,11.60
2023-05-16T01:13:53.552Z,11.60
2023-05-16T01:16:34.640Z,11.50
2023-05-16T01:19:10.540Z,11.50
2023-05-16T01:21:52.488Z,11.50
2023-05-16T01:24:34.160Z,11.50
2023-05-16T01:27:13.649Z,11.50
2023-05-16T01:29:41.504Z,11.50
2023-05-16T01:32:09.493Z,11.50
2023-05-16T01:34:43.487Z,11.50
2023-05-16T01:37:18.424Z,11.40
2023-05-16T01:39:59.507Z,11.40
2023-05-16T01:42:32.554Z,11.30
2023-05-16T01:45:10.481Z,11.30
2023-05-16T01:47:49.686Z,11.20
2023-05-16T01:50:25.622Z,11.20
2023-05-16T01:53:00.500Z,11.10
2023-05-16T01:55:44.577Z,11.10
2023-05-16T01:58:15.386Z,11.00
2023-05-16T02:00:43.585Z,11.00
2023-05-16T02:03:17.617Z,11.00
2023-05-16T02:05:45.586Z,11.00
2023-05-16T02:08:21.503Z,11.10
2023-05-16T02:10:49.329Z,11.10
2023-05-16T02:13:25.506Z,11.40
2023-05-16T02:15:53.928Z,11.50
2023-05-16T02:18:30.639Z,11.50
2023-05-16T02:20:58.671Z,11.60
2023-05-16T02:23:26.683Z,11.60
2023-05-16T02:26:01.541Z,11.60
2023-05-16T02:28:30.718Z,11.60
2023-05-16T02:31:05.527Z,11.60
2023-05-16T02:33:33.435Z,11.70
2023-05-16T02:36:07.590Z,11.70
2023-05-16T02:38:35.829Z,11.70
2023-05-16T02:41:10.524Z,11.80
2023-05-16T02:43:39.652Z,11.90
2023-05-16T02:46:40.804Z,12.00
2023-05-16T02:49:08.688Z,12.10
2023-05-16T02:51:36.490Z,12.20
2023-05-16T02:54:10.647Z,12.20
2023-05-16T02:56:38.438Z,12.20
2023-05-16T02:59:14.647Z,12.30
2023-05-16T03:01:42.461Z,12.30
2023-05-16T03:04:16.498Z,12.30
2023-05-16T03:06:44.395Z,12.30
2023-05-16T03:09:18.669Z,12.30
2023-05-16T03:11:47.452Z,12.30
2023-05-16T03:14:16.635Z,12.20
2023-05-16T03:16:51.532Z,12.20
2023-05-16T03:19:19.408Z,12.20
2023-05-16T03:21:53.551Z,12.20
2023-05-16T03:24:23.078Z,12.20
2023-05-16T03:26:57.559Z,12.20
2023-05-16T03:29:26.972Z,12.10
2023-05-16T03:32:01.738Z,12.10
2023-05-16T03:34:29.663Z,12.10
2023-05-16T03:36:57.414Z,12.10
2023-05-16T03:39:31.547Z,12.10
2023-05-16T03:41:59.381Z,12.10
2023-05-16T03:44:34.558Z,12.10
2023-05-16T03:47:09.298Z,12.10
2023-05-16T03:49:43.673Z,12.10
2023-05-16T03:52:11.667Z,12.10
2023-05-16T03:54:39.476Z,12.10
2023-05-16T03:57:13.570Z,12.10
2023-05-16T03:59:43.244Z,12.10
2023-05-16T04:02:18.917Z,12.10
2023-05-16T04:04:46.925Z,12.00
2023-05-16T04:07:23.279Z,12.10
2023-05-16T04:09:52.665Z,12.10
2023-05-16T04:12:26.677Z,12.00
2023-05-16T04:14:55.782Z,12.10
2023-05-16T04:17:23.602Z,12.00
2023-05-16T04:19:57.556Z,12.00
2023-05-16T04:22:25.764Z,11.90
2023-05-16T04:24:59.553Z,11.90
2023-05-16T04:27:27.762Z,11.90
2023-05-16T04:30:03.625Z,11.90
2023-05-16T04:32:34.572Z,11.90
2023-05-16T04:35:08.615Z,11.90
2023-05-16T04:37:36.823Z,11.90
2023-05-16T04:40:06.437Z,11.80
2023-05-16T04:42:41.593Z,11.90
2023-05-16T04:45:18.714Z,11.90
2023-05-16T04:47:59.569Z,11.80
2023-05-16T04:50:27.403Z,11.90
2023-05-16T04:53:01.596Z,11.80
2023-05-16T04:55:29.755Z,11.80
2023-05-16T04:58:04.720Z,11.90
2023-05-16T05:00:33.848Z,11.80
2023-05-16T05:03:01.710Z,11.80
2023-05-16T05:05:36.559Z,11.70
2023-05-16T05:08:04.611Z,11.70
2023-05-16T05:10:38.559Z,11.70
2023-05-16T05:13:06.604Z,11.70
2023-05-16T05:15:42.647Z,11.70
2023-05-16T05:18:10.932Z,11.70
2023-05-16T05:20:39.026Z,11.60
2023-05-16T05:23:13.597Z,11.60
2023-05-16T05:25:41.846Z,11.60
2023-05-16T05:28:16.576Z,11.60
2023-05-16T05:30:46.724Z,11.70
2023-05-16T05:33:24.590Z,11.70
2023-05-16T05:35:54.077Z,11.60
2023-05-16T05:38:28.725Z,11.60
2023-05-16T05:40:56.908Z,11.60
2023-05-16T05:43:38.709Z,11.60
2023-05-16T05:46:28.588Z,11.60
2023-05-16T05:49:03.636Z,11.60
2023-05-16T05:51:31.547Z,11.50
2023-05-16T05:54:09.091Z,11.50
2023-05-16T05:56:36.964Z,11.50
2023-05-16T05:59:05.129Z,11.60
2023-05-16T06:01:40.621Z,11.50
2023-05-16T06:04:08.507Z,11.60
2023-05-16T06:06:43.640Z,11.60
2023-05-16T06:09:11.450Z,11.60
2023-05-16T06:11:45.803Z,11.60
2023-05-16T06:14:16.240Z,11.60
2023-05-16T06:16:52.782Z,11.70
2023-05-16T06:19:20.994Z,11.70
2023-05-16T06:21:48.803Z,11.70
2023-05-16T06:24:23.927Z,11.60
2023-05-16T06:26:52.473Z,11.70
2023-05-16T06:29:26.592Z,11.60
2023-05-16T06:31:55.774Z,11.60
2023-05-16T06:34:34.606Z,11.80
2023-05-16T06:37:03.668Z,11.80
2023-05-16T06:39:37.682Z,11.90
2023-05-16T06:42:05.845Z,11.90
2023-05-16T06:44:33.690Z,12.00
2023-05-16T06:47:09.650Z,12.10
2023-05-16T06:49:44.656Z,12.20
2023-05-16T06:52:18.674Z,12.20
2023-05-16T06:54:46.664Z,12.10
2023-05-16T06:57:21.733Z,12.20
2023-05-16T06:59:49.548Z,12.10
2023-05-16T07:02:26.185Z,12.10
2023-05-16T07:04:54.149Z,12.20
2023-05-16T07:07:21.969Z,12.40
2023-05-16T07:09:56.663Z,12.40
2023-05-16T07:12:24.667Z,12.30
2023-05-16T07:14:58.659Z,12.40
2023-05-16T07:17:27.862Z,12.60
2023-05-16T07:20:05.137Z,12.70
2023-05-16T07:22:33.512Z,12.80
2023-05-16T07:25:08.772Z,12.90
2023-05-16T07:27:36.592Z,12.90
2023-05-16T07:30:04.590Z,13.00
2023-05-16T07:32:40.676Z,13.00
2023-05-16T07:35:09.668Z,13.10
2023-05-16T07:37:44.647Z,13.20
2023-05-16T07:40:13.617Z,13.00
2023-05-16T07:42:47.784Z,13.10
2023-05-16T07:45:15.629Z,13.00
2023-05-16T07:48:00.745Z,13.10
2023-05-16T07:50:28.560Z,13.10
2023-05-16T07:53:03.867Z,13.30
2023-05-16T07:55:31.902Z,13.30
2023-05-16T07:57:59.784Z,13.00
2023-05-16T08:00:34.641Z,13.00
2023-05-16T08:03:04.173Z,13.10
2023-05-16T08:05:38.731Z,13.20
2023-05-16T08:08:07.026Z,13.30
2023-05-16T08:10:41.799Z,13.00
2023-05-16T08:13:09.805Z,12.80
2023-05-16T08:15:38.141Z,12.70
2023-05-16T08:18:22.219Z,12.60
2023-05-16T08:20:51.269Z,12.60
2023-05-16T08:23:26.673Z,12.60
2023-05-16T08:25:55.420Z,12.60
2023-05-16T08:28:29.650Z,12.60
2023-05-16T08:30:57.515Z,12.90
2023-05-16T08:33:34.050Z,13.20
2023-05-16T08:36:02.059Z,13.20
2023-05-16T08:38:29.915Z,13.30
2023-05-16T08:41:04.639Z,13.10
2023-05-16T08:43:33.369Z,13.10
2023-05-16T08:46:07.650Z,13.30
2023-05-16T08:48:47.007Z,13.30
2023-05-16T08:51:25.684Z,13.40
2023-05-16T08:54:00.739Z,13.40
2023-05-16T08:56:35.757Z,13.40
2023-05-16T08:59:04.285Z,13.50
2023-05-16T09:01:32.577Z,13.50
2023-05-16T09:04:09.056Z,13.50
2023-05-16T09:06:37.100Z,13.20
2023-05-16T09:09:14.707Z,13.00
2023-05-16T09:11:43.754Z,13.00
2023-05-16T09:14:18.695Z,13.00
2023-05-16T09:16:46.878Z,13.10
2023-05-16T09:19:22.874Z,13.10
2023-05-16T09:21:50.857Z,13.30
2023-05-16T09:24:18.691Z,13.40
2023-05-16T09:26:52.720Z,13.50
2023-05-16T09:29:20.617Z,13.40
2023-05-16T09:31:57.693Z,13.40
2023-05-16T09:34:26.913Z,13.60
2023-05-16T09:37:02.679Z,13.30
2023-05-16T09:39:30.494Z,13.30
2023-05-16T09:42:06.849Z,13.40
2023-05-16T09:44:50.106Z,13.50
2023-05-16T09:47:30.928Z,13.50
2023-05-16T09:50:08.765Z,13.30
2023-05-16T09:52:44.846Z,13.40
2023-05-16T09:55:12.981Z,13.60
2023-05-16T09:57:41.215Z,13.80
2023-05-16T10:00:18.737Z,14.00
2023-05-16T10:02:49.260Z,13.70
2023-05-16T10:05:25.799Z,13.60
2023-05-16T10:07:56.198Z,13.30
2023-05-16T10:10:31.710Z,13.00
2023-05-16T10:13:01.507Z,12.90
2023-05-16T10:15:36.834Z,12.80
2023-05-16T10:18:08.115Z,12.60
2023-05-16T10:20:44.008Z,12.30
2023-05-16T10:23:17.423Z,12.20
2023-05-16T10:25:52.844Z,12.20
2023-05-16T10:28:20.715Z,12.30
2023-05-16T10:30:48.940Z,12.30
2023-05-16T10:33:26.038Z,12.80
2023-05-16T10:36:03.865Z,13.50
2023-05-16T10:38:32.573Z,13.70
2023-05-16T10:41:00.457Z,13.90
2023-05-16T10:43:36.769Z,14.30
2023-05-16T10:46:09.725Z,14.30
2023-05-16T10:48:52.869Z,14.70
2023-05-16T10:51:37.793Z,15.40
2023-05-16T10:54:18.734Z,15.20
2023-05-16T10:56:57.129Z,14.90
2023-05-16T10:59:32.874Z,15.00
2023-05-16T11:02:00.731Z,15.00
2023-05-16T11:04:53.950Z,15.30
2023-05-16T11:07:25.452Z,15.40
2023-05-16T11:10:16.862Z,15.00
2023-05-16T11:12:46.313Z,15.40
2023-05-16T11:15:29.304Z,15.50
2023-05-16T11:18:08.586Z,15.10
2023-05-16T11:20:43.925Z,15.50
2023-05-16T11:23:24.677Z,16.00
2023-05-16T11:26:04.738Z,16.40
2023-05-16T11:28:33.923Z,16.30
2023-05-16T11:31:09.752Z,16.60
2023-05-16T11:33:40.295Z,16.80
2023-05-16T11:36:16.923Z,16.60
2023-05-16T11:38:48.086Z,16.30
2023-05-16T11:41:29.876Z,16.00
2023-05-16T11:43:57.744Z,16.10
2023-05-16T11:46:38.949Z,16.10
2023-05-16T11:49:14.234Z,16.30
2023-05-16T11:51:49.930Z,16.00
2023-05-16T11:54:20.868Z,16.10
2023-05-16T11:56:48.806Z,16.00
2023-05-16T11:59:23.839Z,15.70
2023-05-16T12:01:51.716Z,15.40
2023-05-16T12:04:26.848Z,15.20
2023-05-16T12:07:02.410Z,15.10
2023-05-16T12:09:37.704Z,15.10
2023-05-16T12:12:07.342Z,15.20
2023-05-16T12:14:41.777Z,15.30
2023-05-16T12:17:09.730Z,15.60
2023-05-16T12:19:37.870Z,15.70
2023-05-16T12:22:12.778Z,15.70
2023-05-16T12:24:42.267Z,15.70
2023-05-16T12:27:16.918Z,15.60
2023-05-16T12:29:48.601Z,15.60
2023-05-16T12:32:26.821Z,15.50
2023-05-16T12:34:56.218Z,15.50
2023-05-16T12:37:30.917Z,15.50
2023-05-16T12:40:04.242Z,15.50
2023-05-16T12:42:38.913Z,15.50
2023-05-16T12:45:15.072Z,15.30
2023-05-16T12:47:56.787Z,15.10
2023-05-16T12:50:31.449Z,15.00
2023-05-16T12:53:07.944Z,14.90
2023-05-16T12:55:37.118Z,14.90
2023-05-16T12:58:05.288Z,14.70
2023-05-16T13:00:40.082Z,14.60
2023-05-16T13:03:08.628Z,14.60
2023-05-16T13:05:43.903Z,14.90
2023-05-16T13:08:11.881Z,14.80
2023-05-16T13:10:48.151Z,15.00
2023-05-16T13:13:25.057Z,14.90
2023-05-16T13:16:10.771Z,15.10
2023-05-16T13:18:38.718Z,15.00
2023-05-16T13:21:14.066Z,14.90
2023-05-16T13:23:42.083Z,14.90
2023-05-16T13:26:11.758Z,14.90
2023-05-16T13:28:45.777Z,14.70
2023-05-16T13:31:13.769Z,14.40
2023-05-16T13:33:48.792Z,14.20
2023-05-16T13:36:16.723Z,14.00
2023-05-16T13:38:50.888Z,13.90
2023-05-16T13:41:20.066Z,13.90
2023-05-16T13:43:47.909Z,13.80
2023-05-16T13:46:22.815Z,13.80
2023-05-16T13:49:05.903Z,13.70
2023-05-16T13:51:33.770Z,13.50
2023-05-16T13:54:01.657Z,13.50
2023-05-16T13:56:37.791Z,13.60
2023-05-16T13:59:07.329Z,13.60
2023-05-16T14:01:42.839Z,13.80
2023-05-16T14:04:10.846Z,13.70
2023-05-16T14:06:45.907Z,13.70
2023-05-16T14:09:15.290Z,13.70
2023-05-16T14:11:44.561Z,13.90
2023-05-16T14:14:18.780Z,13.80
2023-05-16T14:16:47.369Z,13.60
2023-05-16T14:19:21.901Z,13.60
2023-05-16T14:21:49.986Z,13.50
2023-05-16T14:24:24.884Z,13.50
2023-05-16T14:26:58.325Z,13.60
2023-05-16T14:29:32.910Z,13.40
2023-05-16T14:32:00.947Z,13.40
2023-05-16T14:34:29.121Z,13.40
2023-05-16T14:37:03.848Z,13.40
2023-05-16T14:39:31.674Z,13.40
2023-05-16T14:42:08.761Z,13.40
2023-05-16T14:44:37.375Z,13.40
2023-05-16T14:47:11.808Z,13.30
2023-05-16T14:49:46.546Z,13.40
2023-05-16T14:52:21.949Z,13.30
2023-05-16T14:54:49.873Z,13.30
2023-05-16T14:57:19.030Z,13.10
2023-05-16T14:59:54.804Z,13.30
2023-05-16T15:02:22.658Z,13.30
2023-05-16T15:04:56.930Z,13.20
2023-05-16T15:07:25.391Z,13.00
2023-05-16T15:09:59.786Z,12.90
2023-05-16T15:12:29.169Z,12.80
2023-05-16T15:15:05.056Z,12.60
2023-05-16T15:17:33.231Z,12.60
2023-05-16T15:20:01.257Z,12.50
2023-05-16T15:22:35.908Z,12.50
2023-05-16T15:25:05.784Z,12.50
2023-05-16T15:27:42.134Z,12.50
2023-05-16T15:30:12.207Z,12.40
2023-05-16T15:32:46.902Z,12.40
2023-05-16T15:35:14.727Z,12.50
2023-05-16T15:37:43.677Z,12.40
2023-05-16T15:40:23.359Z,12.40
2023-05-16T15:43:01.954Z,12.30
2023-05-16T15:45:30.012Z,12.40
2023-05-16T15:48:12.099Z,12.40
2023-05-16T15:50:46.486Z,12.20
2023-05-16T15:53:21.046Z,12.20
2023-05-16T15:55:49.066Z,12.20
2023-05-16T15:58:19.649Z,12.40
2023-05-16T16:00:58.017Z,12.40
2023-05-16T16:03:26.510Z,12.40
2023-05-16T16:06:00.804Z,12.30
2023-05-16T16:08:28.698Z,12.20
2023-05-16T16:11:03.862Z,12.20
2023-05-16T16:13:33.033Z,12.30
2023-05-16T16:16:08.100Z,12.40
2023-05-16T16:18:36.502Z,12.50
2023-05-16T16:21:04.628Z,12.40
2023-05-16T16:23:45.894Z,12.40
2023-05-16T16:26:14.113Z,12.30
2023-05-16T16:28:49.860Z,12.10
2023-05-16T16:31:17.984Z,12.20
2023-05-16T16:33:55.782Z,12.40
2023-05-16T16:36:23.637Z,12.60
2023-05-16T16:38:57.987Z,12.60
2023-05-16T16:41:25.904Z,12.40
2023-05-16T16:43:55.047Z,12.20
2023-05-16T16:46:29.892Z,12.10
2023-05-16T16:49:04.506Z,12.00
2023-05-16T16:51:41.075Z,12.00
2023-05-16T16:54:08.901Z,12.00
2023-05-16T16:56:42.950Z,11.90
2023-05-16T16:59:12.487Z,11.80
2023-05-16T17:01:40.689Z,11.70
2023-05-16T17:04:14.828Z,11.70
2023-05-16T17:06:42.872Z,11.60
2023-05-16T17:09:20.841Z,11.60
2023-05-16T17:11:48.876Z,11.70
2023-05-16T17:14:24.825Z,11.70
2023-05-16T17:16:53.127Z,11.70
2023-05-16T17:19:28.183Z,11.70
2023-05-16T17:21:56.466Z,11.60
2023-05-16T17:24:24.705Z,11.60
2023-05-16T17:26:59.802Z,11.60
2023-05-16T17:29:29.258Z,11.60
2023-05-16T17:32:03.969Z,11.50
2023-05-16T17:34:31.868Z,11.40
2023-05-16T17:37:06.879Z,11.30
2023-05-16T17:39:34.864Z,11.30
2023-05-16T17:42:09.024Z,11.20
2023-05-16T17:44:39.478Z,11.10
2023-05-16T17:47:21.009Z,11.00
2023-05-16T17:49:55.656Z,11.00
2023-05-16T17:52:29.975Z,10.90
2023-05-16T17:54:57.920Z,10.90
2023-05-16T17:57:26.484Z,10.90
2023-05-16T18:00:01.871Z,10.80
2023-05-16T18:02:29.942Z,10.80
2023-05-16T18:05:04.878Z,10.80
2023-05-16T18:07:32.895Z,10.70
2023-05-16T18:10:07.082Z,10.70
2023-05-16T18:12:35.913Z,10.70
2023-05-16T18:15:11.974Z,10.60
2023-05-16T18:17:39.914Z,10.60
2023-05-16T18:20:10.745Z,10.60
2023-05-16T18:22:46.154Z,10.60
2023-05-16T18:25:13.969Z,10.60
2023-05-16T18:27:48.844Z,10.50
2023-05-16T18:30:18.031Z,10.40
2023-05-16T18:32:52.982Z,10.40
2023-05-16T18:35:20.830Z,10.30
2023-05-16T18:37:49.227Z,10.30
2023-05-16T18:40:24.901Z,10.20
2023-05-16T18:42:53.021Z,10.20
2023-05-16T18:45:30.206Z,10.10
2023-05-16T18:48:23.302Z,10.10
2023-05-16T18:51:10.179Z,10.10
2023-05-16T18:53:42.934Z,10.10
2023-05-16T18:56:18.085Z,10.10
2023-05-16T18:58:46.615Z,10.00
2023-05-16T19:01:16.083Z,10.00
2023-05-16T19:03:51.207Z,10.00
2023-05-16T19:06:19.257Z,10.00
2023-05-16T19:08:53.985Z,10.00
2023-05-16T19:11:22.478Z,10.00
2023-05-16T19:13:57.025Z,9.90
2023-05-16T19:16:26.475Z,9.90
2023-05-16T19:18:54.475Z,9.80
2023-05-16T19:21:28.868Z,9.70
2023-05-16T19:23:57.134Z,9.70
2023-05-16T19:26:31.854Z,9.60
2023-05-16T19:29:00.581Z,9.60
2023-05-16T19:31:38.856Z,9.60
2023-05-16T19:34:06.858Z,9.60
2023-05-16T19:36:42.063Z,9.60
2023-05-16T19:39:10.005Z,9.60
2023-05-16T19:41:37.808Z,9.60
2023-05-16T19:44:11.888Z,9.60
2023-05-16T19:46:41.397Z,9.60
2023-05-16T19:49:19.549Z,9.60
2023-05-16T19:51:55.168Z,9.60
2023-05-16T19:54:29.856Z,9.60
2023-05-16T19:56:57.725Z,9.60
2023-05-16T19:59:32.082Z,9.60
2023-05-16T20:02:01.212Z,9.50
2023-05-16T20:04:29.062Z,9.50
2023-05-16T20:07:04.027Z,9.50
2023-05-16T20:09:32.214Z,9.50
2023-05-16T20:12:06.839Z,9.50
2023-05-16T20:14:34.765Z,9.50
2023-05-16T20:17:10.842Z,9.50
2023-05-16T20:19:43.775Z,9.50
2023-05-16T20:22:18.937Z,9.50
2023-05-16T20:24:46.978Z,9.40
2023-05-16T20:27:15.157Z,9.40
2023-05-16T20:29:49.842Z,9.40
2023-05-16T20:32:19.725Z,9.40
2023-05-16T20:34:53.935Z,9.40
2023-05-16T20:37:26.464Z,9.40
2023-05-16T20:40:01.860Z,9.40
2023-05-16T20:42:29.717Z,9.40
2023-05-16T20:45:04.067Z,9.40
2023-05-16T20:47:33.265Z,9.30
2023-05-16T20:50:16.019Z,9.30
2023-05-16T20:52:44.132Z,9.40
2023-05-16T20:55:11.946Z,9.40
2023-05-16T20:57:45.880Z,9.40
2023-05-16T21:00:14.662Z,9.40
2023-05-16T21:02:49.914Z,9.40
2023-05-16T21:05:24.834Z,9.40
2023-05-16T21:07:59.900Z,9.40
2023-05-16T21:10:27.820Z,9.40
2023-05-16T21:12:55.680Z,9.40
2023-05-16T21:15:30.226Z,9.40
2023-05-16T21:17:59.677Z,9.50
2023-05-16T21:20:36.928Z,9.40
2023-05-16T21:23:04.817Z,9.40
2023-05-16T21:25:39.066Z,9.40
2023-05-16T21:28:06.897Z,9.40
2023-05-16T21:30:34.803Z,9.40
2023-05-16T21:33:11.012Z,9.40
2023-05-16T21:35:38.926Z,9.40
2023-05-16T21:38:12.932Z,9.40
2023-05-16T21:40:40.809Z,9.40
2023-05-16T21:43:15.901Z,9.40
2023-05-16T21:45:43.729Z,9.40
2023-05-16T21:48:20.099Z,9.40
2023-05-16T21:51:08.040Z,9.50
2023-05-16T21:53:43.058Z,9.50
2023-05-16T21:56:11.097Z,9.50
2023-05-16T21:58:39.030Z,9.60
2023-05-16T22:01:13.948Z,9.50
2023-05-16T22:03:43.228Z,9.50
2023-05-16T22:06:17.966Z,9.60
2023-05-16T22:08:45.774Z,9.50
2023-05-16T22:11:19.938Z,9.50
2023-05-16T22:13:47.763Z,9.60
2023-05-16T22:16:21.953Z,9.60
2023-05-16T22:18:51.225Z,9.60
2023-05-16T22:21:32.108Z,9.60
2023-05-16T22:23:59.911Z,9.60
2023-05-16T22:26:27.892Z,9.60
2023-05-16T22:29:01.939Z,9.60
2023-05-16T22:31:29.898Z,9.60
2023-05-16T22:34:05.911Z,9.60
2023-05-16T22:36:33.889Z,9.60
2023-05-16T22:39:07.929Z,9.60
2023-05-16T22:41:35.804Z,9.60
2023-05-16T22:44:10.054Z,9.60
2023-05-16T22:46:38.075Z,9.50
2023-05-16T22:49:07.263Z,9.60
2023-05-16T22:51:48.963Z,9.60
2023-05-16T22:54:17.385Z,9.60
2023-05-16T22:56:51.931Z,9.50
2023-05-16T22:59:19.818Z,9.50
2023-05-16T23:01:54.039Z,9.50
2023-05-16T23:04:23.190Z,9.40
2023-05-16T23:06:51.127Z,9.40
2023-05-16T23:09:25.959Z,9.40
2023-05-16T23:11:53.900Z,9.40
2023-05-16T23:14:27.993Z,9.40
2023-05-16T23:16:58.242Z,9.40
2023-05-16T23:19:34.220Z,9.40
2023-05-16T23:22:03.423Z,9.40
2023-05-16T23:24:38.071Z,9.40
2023-05-16T23:27:06.227Z,9.40
2023-05-16T23:29:34.071Z,9.40
2023-05-16T23:32:07.917Z,9.40
2023-05-16T23:34:37.079Z,9.30
2023-05-16T23:37:11.961Z,9.30
2023-05-16T23:39:39.789Z,9.30
2023-05-16T23:42:13.918Z,9.30
2023-05-16T23:44:41.892Z,9.20
2023-05-16T23:47:17.106Z,9.20
2023-05-16T23:50:05.901Z,9.10
2023-05-16T23:52:41.039Z,9.20
2023-05-16T23:55:09.759Z,9.10
2023-05-16T23:57:38.567Z,9.10
